sensor_id;sensor_type;location;lat;lon;timestamp;temperature;humidity
25468;DHT22;13384;24.794;110.498;2022-09-09T00:02:22;27.30;95.00
25468;DHT22;13384;24.794;110.498;2022-09-09T00:05:14;27.30;95.00
25468;DHT22;13384;24.794;110.498;2022-09-09T00:07:54;27.30;94.90
25468;DHT22;13384;24.794;110.498;2022-09-09T00:10:34;27.30;94.90
25468;DHT22;13384;24.794;110.498;2022-09-09T00:13:48;27.30;95.10
25468;DHT22;13384;24.794;110.498;2022-09-09T00:16:25;27.30;94.90
25468;DHT22;13384;24.794;110.498;2022-09-09T00:22:16;27.30;95.20
25468;DHT22;13384;24.794;110.498;2022-09-09T00:25:02;27.30;94.90
25468;DHT22;13384;24.794;110.498;2022-09-09T00:27:41;27.30;95.00
25468;DHT22;13384;24.794;110.498;2022-09-09T00:30:18;27.40;95.30
25468;DHT22;13384;24.794;110.498;2022-09-09T00:33:00;27.30;95.20
25468;DHT22;13384;24.794;110.498;2022-09-09T00:35:56;27.40;95.10
25468;DHT22;13384;24.794;110.498;2022-09-09T00:38:49;27.30;95.40
25468;DHT22;13384;24.794;110.498;2022-09-09T00:44:25;27.40;95.40
25468;DHT22;13384;24.794;110.498;2022-09-09T00:47:12;27.40;95.20
25468;DHT22;13384;24.794;110.498;2022-09-09T00:56:19;27.40;96.20
25468;DHT22;13384;24.794;110.498;2022-09-09T01:01:56;27.40;95.60
25468;DHT22;13384;24.794;110.498;2022-09-09T01:04:33;27.40;96.10
25468;DHT22;13384;24.794;110.498;2022-09-09T01:07:17;27.40;96.80
25468;DHT22;13384;24.794;110.498;2022-09-09T01:15:20;27.40;97.10
25468;DHT22;13384;24.794;110.498;2022-09-09T01:26:43;27.40;96.50
25468;DHT22;13384;24.794;110.498;2022-09-09T01:29:26;27.40;97.00
25468;DHT22;13384;24.794;110.498;2022-09-09T01:35:04;27.40;97.10
25468;DHT22;13384;24.794;110.498;2022-09-09T01:37:37;27.40;96.90
25468;DHT22;13384;24.794;110.498;2022-09-09T01:40:08;27.40;96.80
25468;DHT22;13384;24.794;110.498;2022-09-09T01:42:40;27.40;96.60
25468;DHT22;13384;24.794;110.498;2022-09-09T01:45:24;27.50;96.60
25468;DHT22;13384;24.794;110.498;2022-09-09T01:47:56;27.50;96.60
25468;DHT22;13384;24.794;110.498;2022-09-09T01:50:47;27.50;96.50
25468;DHT22;13384;24.794;110.498;2022-09-09T01:53:20;27.50;96.50
25468;DHT22;13384;24.794;110.498;2022-09-09T01:59:18;27.50;96.60
25468;DHT22;13384;24.794;110.498;2022-09-09T02:02:11;27.50;96.50
25468;DHT22;13384;24.794;110.498;2022-09-09T02:05:11;27.50;96.40
25468;DHT22;13384;24.794;110.498;2022-09-09T02:07:50;27.50;96.60
25468;DHT22;13384;24.794;110.498;2022-09-09T02:11:25;27.50;96.50
25468;DHT22;13384;24.794;110.498;2022-09-09T02:14:17;27.50;96.40
25468;DHT22;13384;24.794;110.498;2022-09-09T02:16:56;27.50;96.40
25468;DHT22;13384;24.794;110.498;2022-09-09T02:19:48;27.50;96.50
25468;DHT22;13384;24.794;110.498;2022-09-09T02:22:39;27.50;96.50
25468;DHT22;13384;24.794;110.498;2022-09-09T02:25:13;27.50;96.50
25468;DHT22;13384;24.794;110.498;2022-09-09T02:27:48;27.50;96.50
25468;DHT22;13384;24.794;110.498;2022-09-09T02:30:23;27.50;96.60
25468;DHT22;13384;24.794;110.498;2022-09-09T02:32:58;27.50;96.60
25468;DHT22;13384;24.794;110.498;2022-09-09T02:35:59;27.50;96.50
25468;DHT22;13384;24.794;110.498;2022-09-09T02:38:36;27.50;96.50
25468;DHT22;13384;24.794;110.498;2022-09-09T02:41:13;27.50;96.50
25468;DHT22;13384;24.794;110.498;2022-09-09T02:43:44;27.50;96.30
25468;DHT22;13384;24.794;110.498;2022-09-09T02:49:09;27.50;96.40
25468;DHT22;13384;24.794;110.498;2022-09-09T02:54:37;27.50;96.40
25468;DHT22;13384;24.794;110.498;2022-09-09T02:57:17;27.50;96.50
25468;DHT22;13384;24.794;110.498;2022-09-09T02:59:50;27.50;96.60
25468;DHT22;13384;24.794;110.498;2022-09-09T03:02:25;27.50;96.40
25468;DHT22;13384;24.794;110.498;2022-09-09T03:05:01;27.60;96.50
25468;DHT22;13384;24.794;110.498;2022-09-09T03:07:32;27.50;96.40
25468;DHT22;13384;24.794;110.498;2022-09-09T03:10:03;27.50;96.40
25468;DHT22;13384;24.794;110.498;2022-09-09T03:13:14;27.60;96.50
25468;DHT22;13384;24.794;110.498;2022-09-09T03:15:45;27.60;96.60
25468;DHT22;13384;24.794;110.498;2022-09-09T03:18:19;27.60;96.60
25468;DHT22;13384;24.794;110.498;2022-09-09T03:20:53;27.60;96.50
25468;DHT22;13384;24.794;110.498;2022-09-09T03:23:24;27.60;96.50
25468;DHT22;13384;24.794;110.498;2022-09-09T03:25:54;27.60;96.60
25468;DHT22;13384;24.794;110.498;2022-09-09T03:28:36;27.60;96.60
25468;DHT22;13384;24.794;110.498;2022-09-09T03:31:09;27.60;96.60
25468;DHT22;13384;24.794;110.498;2022-09-09T03:33:42;27.60;96.60
25468;DHT22;13384;24.794;110.498;2022-09-09T03:36:15;27.60;96.60
25468;DHT22;13384;24.794;110.498;2022-09-09T03:38:46;27.60;96.50
25468;DHT22;13384;24.794;110.498;2022-09-09T03:41:18;27.60;96.50
25468;DHT22;13384;24.794;110.498;2022-09-09T03:43:52;27.60;96.50
25468;DHT22;13384;24.794;110.498;2022-09-09T03:46:26;27.60;96.60
25468;DHT22;13384;24.794;110.498;2022-09-09T03:49:16;27.60;96.60
25468;DHT22;13384;24.794;110.498;2022-09-09T03:51:48;27.60;96.60
25468;DHT22;13384;24.794;110.498;2022-09-09T03:54:19;27.60;96.50
25468;DHT22;13384;24.794;110.498;2022-09-09T03:56:52;27.60;96.50
25468;DHT22;13384;24.794;110.498;2022-09-09T03:59:25;27.60;96.50
25468;DHT22;13384;24.794;110.498;2022-09-09T04:01:56;27.60;96.50
25468;DHT22;13384;24.794;110.498;2022-09-09T04:04:49;27.60;96.60
25468;DHT22;13384;24.794;110.498;2022-09-09T04:07:19;27.60;96.60
25468;DHT22;13384;24.794;110.498;2022-09-09T04:09:51;27.60;96.60
25468;DHT22;13384;24.794;110.498;2022-09-09T04:12:24;27.60;96.60
25468;DHT22;13384;24.794;110.498;2022-09-09T04:14:55;27.60;96.60
25468;DHT22;13384;24.794;110.498;2022-09-09T04:17:26;27.60;96.60
25468;DHT22;13384;24.794;110.498;2022-09-09T04:20:00;27.60;96.50
25468;DHT22;13384;24.794;110.498;2022-09-09T04:22:31;27.60;96.50
25468;DHT22;13384;24.794;110.498;2022-09-09T04:25:02;27.60;96.50
25468;DHT22;13384;24.794;110.498;2022-09-09T04:27:33;27.60;96.40
25468;DHT22;13384;24.794;110.498;2022-09-09T04:30:04;27.60;96.40
25468;DHT22;13384;24.794;110.498;2022-09-09T04:32:37;27.60;96.50
25468;DHT22;13384;24.794;110.498;2022-09-09T04:35:08;27.60;96.30
25468;DHT22;13384;24.794;110.498;2022-09-09T04:37:38;27.60;96.30
25468;DHT22;13384;24.794;110.498;2022-09-09T04:40:10;27.60;96.30
25468;DHT22;13384;24.794;110.498;2022-09-09T04:42:41;27.60;96.50
25468;DHT22;13384;24.794;110.498;2022-09-09T04:45:15;27.60;96.70
25468;DHT22;13384;24.794;110.498;2022-09-09T04:47:48;27.60;96.30
25468;DHT22;13384;24.794;110.498;2022-09-09T04:50:19;27.60;96.40
25468;DHT22;13384;24.794;110.498;2022-09-09T04:52:59;27.60;96.40
25468;DHT22;13384;24.794;110.498;2022-09-09T04:55:34;27.60;96.40
25468;DHT22;13384;24.794;110.498;2022-09-09T04:58:07;27.60;96.40
25468;DHT22;13384;24.794;110.498;2022-09-09T05:00:39;27.60;96.40
25468;DHT22;13384;24.794;110.498;2022-09-09T05:03:10;27.60;96.30
25468;DHT22;13384;24.794;110.498;2022-09-09T05:06:08;27.70;96.40
25468;DHT22;13384;24.794;110.498;2022-09-09T05:08:41;27.70;96.50
25468;DHT22;13384;24.794;110.498;2022-09-09T05:11:23;27.60;96.40
25468;DHT22;13384;24.794;110.498;2022-09-09T05:13:58;27.60;96.40
25468;DHT22;13384;24.794;110.498;2022-09-09T05:16:32;27.60;96.50
25468;DHT22;13384;24.794;110.498;2022-09-09T05:19:03;27.60;96.40
25468;DHT22;13384;24.794;110.498;2022-09-09T05:21:45;27.60;96.30
25468;DHT22;13384;24.794;110.498;2022-09-09T05:24:19;27.60;96.30
25468;DHT22;13384;24.794;110.498;2022-09-09T05:26:52;27.70;96.40
25468;DHT22;13384;24.794;110.498;2022-09-09T05:29:24;27.60;96.20
25468;DHT22;13384;24.794;110.498;2022-09-09T05:31:57;27.60;96.70
25468;DHT22;13384;24.794;110.498;2022-09-09T05:34:28;27.60;96.30
25468;DHT22;13384;24.794;110.498;2022-09-09T05:36:59;27.70;96.40
25468;DHT22;13384;24.794;110.498;2022-09-09T05:39:30;27.70;96.40
25468;DHT22;13384;24.794;110.498;2022-09-09T05:42:02;27.70;96.40
25468;DHT22;13384;24.794;110.498;2022-09-09T05:44:34;27.60;96.30
25468;DHT22;13384;24.794;110.498;2022-09-09T05:47:05;27.60;96.30
25468;DHT22;13384;24.794;110.498;2022-09-09T05:49:36;27.60;96.20
25468;DHT22;13384;24.794;110.498;2022-09-09T05:52:10;27.70;96.50
25468;DHT22;13384;24.794;110.498;2022-09-09T05:55:02;27.60;96.50
25468;DHT22;13384;24.794;110.498;2022-09-09T05:57:35;27.70;96.10
25468;DHT22;13384;24.794;110.498;2022-09-09T06:00:20;27.70;95.80
25468;DHT22;13384;24.794;110.498;2022-09-09T06:02:52;27.70;96.30
25468;DHT22;13384;24.794;110.498;2022-09-09T06:05:23;27.80;96.00
25468;DHT22;13384;24.794;110.498;2022-09-09T06:07:57;27.80;96.00
25468;DHT22;13384;24.794;110.498;2022-09-09T06:10:29;27.80;95.90
25468;DHT22;13384;24.794;110.498;2022-09-09T06:13:00;27.80;96.20
25468;DHT22;13384;24.794;110.498;2022-09-09T06:15:31;27.80;96.30
25468;DHT22;13384;24.794;110.498;2022-09-09T06:18:04;27.80;95.90
25468;DHT22;13384;24.794;110.498;2022-09-09T06:20:58;27.80;96.20
25468;DHT22;13384;24.794;110.498;2022-09-09T06:23:32;27.80;96.10
25468;DHT22;13384;24.794;110.498;2022-09-09T06:26:05;27.80;96.10
25468;DHT22;13384;24.794;110.498;2022-09-09T06:28:37;27.80;96.40
25468;DHT22;13384;24.794;110.498;2022-09-09T06:31:09;27.80;95.90
25468;DHT22;13384;24.794;110.498;2022-09-09T06:33:42;27.80;96.10
25468;DHT22;13384;24.794;110.498;2022-09-09T06:36:15;27.80;95.90
25468;DHT22;13384;24.794;110.498;2022-09-09T06:38:48;27.80;96.10
25468;DHT22;13384;24.794;110.498;2022-09-09T06:42:05;27.80;96.10
25468;DHT22;13384;24.794;110.498;2022-09-09T06:45:07;27.90;96.90
25468;DHT22;13384;24.794;110.498;2022-09-09T06:47:46;27.90;97.10
25468;DHT22;13384;24.794;110.498;2022-09-09T06:50:17;27.90;97.20
25468;DHT22;13384;24.794;110.498;2022-09-09T06:52:50;27.90;97.20
25468;DHT22;13384;24.794;110.498;2022-09-09T06:55:22;28.00;97.30
25468;DHT22;13384;24.794;110.498;2022-09-09T06:58:10;28.00;97.20
25468;DHT22;13384;24.794;110.498;2022-09-09T07:00:41;27.90;96.90
25468;DHT22;13384;24.794;110.498;2022-09-09T07:03:12;28.00;97.00
25468;DHT22;13384;24.794;110.498;2022-09-09T07:05:44;28.00;97.30
25468;DHT22;13384;24.794;110.498;2022-09-09T07:08:59;28.00;97.40
25468;DHT22;13384;24.794;110.498;2022-09-09T07:11:59;28.00;97.40
25468;DHT22;13384;24.794;110.498;2022-09-09T07:14:33;28.00;97.40
25468;DHT22;13384;24.794;110.498;2022-09-09T07:17:09;28.10;97.50
25468;DHT22;13384;24.794;110.498;2022-09-09T07:19:40;28.10;97.70
25468;DHT22;13384;24.794;110.498;2022-09-09T07:22:13;28.00;97.60
25468;DHT22;13384;24.794;110.498;2022-09-09T07:25:45;28.00;97.40
25468;DHT22;13384;24.794;110.498;2022-09-09T07:28:17;28.00;97.50
25468;DHT22;13384;24.794;110.498;2022-09-09T07:30:59;28.00;97.70
25468;DHT22;13384;24.794;110.498;2022-09-09T07:33:35;28.00;97.40
25468;DHT22;13384;24.794;110.498;2022-09-09T07:36:09;28.00;97.80
25468;DHT22;13384;24.794;110.498;2022-09-09T07:39:00;28.00;97.40
25468;DHT22;13384;24.794;110.498;2022-09-09T07:41:37;28.00;97.50
25468;DHT22;13384;24.794;110.498;2022-09-09T07:44:28;28.00;97.50
25468;DHT22;13384;24.794;110.498;2022-09-09T07:47:10;28.00;97.70
25468;DHT22;13384;24.794;110.498;2022-09-09T07:49:45;27.90;97.70
25468;DHT22;13384;24.794;110.498;2022-09-09T07:52:19;27.90;97.60
25468;DHT22;13384;24.794;110.498;2022-09-09T07:54:54;28.00;97.50
25468;DHT22;13384;24.794;110.498;2022-09-09T07:57:30;27.90;97.30
25468;DHT22;13384;24.794;110.498;2022-09-09T08:00:03;27.90;97.30
25468;DHT22;13384;24.794;110.498;2022-09-09T08:02:44;27.90;97.50
25468;DHT22;13384;24.794;110.498;2022-09-09T08:05:17;28.00;97.10
25468;DHT22;13384;24.794;110.498;2022-09-09T08:07:49;28.00;97.30
25468;DHT22;13384;24.794;110.498;2022-09-09T08:10:20;28.00;97.00
25468;DHT22;13384;24.794;110.498;2022-09-09T08:12:53;28.00;97.10
25468;DHT22;13384;24.794;110.498;2022-09-09T08:15:45;28.00;97.10
25468;DHT22;13384;24.794;110.498;2022-09-09T08:18:36;27.90;97.20
25468;DHT22;13384;24.794;110.498;2022-09-09T08:21:10;28.00;97.20
25468;DHT22;13384;24.794;110.498;2022-09-09T08:23:45;28.00;97.20
25468;DHT22;13384;24.794;110.498;2022-09-09T08:26:25;28.00;97.40
25468;DHT22;13384;24.794;110.498;2022-09-09T08:28:59;28.00;97.70
25468;DHT22;13384;24.794;110.498;2022-09-09T08:31:38;27.90;97.00
25468;DHT22;13384;24.794;110.498;2022-09-09T08:34:10;27.90;97.20
25468;DHT22;13384;24.794;110.498;2022-09-09T08:37:20;27.90;97.10
25468;DHT22;13384;24.794;110.498;2022-09-09T08:39:51;27.90;97.20
25468;DHT22;13384;24.794;110.498;2022-09-09T08:42:49;27.90;97.30
25468;DHT22;13384;24.794;110.498;2022-09-09T08:45:28;27.90;97.30
25468;DHT22;13384;24.794;110.498;2022-09-09T08:48:17;27.90;97.40
25468;DHT22;13384;24.794;110.498;2022-09-09T08:51:17;27.90;97.20
25468;DHT22;13384;24.794;110.498;2022-09-09T08:53:50;27.90;97.30
25468;DHT22;13384;24.794;110.498;2022-09-09T08:56:28;27.90;97.10
25468;DHT22;13384;24.794;110.498;2022-09-09T08:59:04;27.90;97.10
25468;DHT22;13384;24.794;110.498;2022-09-09T09:02:05;27.90;97.10
25468;DHT22;13384;24.794;110.498;2022-09-09T09:05:14;27.90;97.20
25468;DHT22;13384;24.794;110.498;2022-09-09T09:10:47;27.90;97.00
25468;DHT22;13384;24.794;110.498;2022-09-09T09:14:31;27.90;97.00
25468;DHT22;13384;24.794;110.498;2022-09-09T09:16:48;27.80;96.90
25468;DHT22;13384;24.794;110.498;2022-09-09T09:19:22;27.80;96.80
25468;DHT22;13384;24.794;110.498;2022-09-09T09:22:42;27.80;97.00
25468;DHT22;13384;24.794;110.498;2022-09-09T09:25:15;27.80;96.90
25468;DHT22;13384;24.794;110.498;2022-09-09T09:28:21;27.80;96.90
25468;DHT22;13384;24.794;110.498;2022-09-09T09:31:05;27.80;96.80
25468;DHT22;13384;24.794;110.498;2022-09-09T09:33:50;27.80;96.70
25468;DHT22;13384;24.794;110.498;2022-09-09T09:36:46;27.80;96.80
25468;DHT22;13384;24.794;110.498;2022-09-09T09:39:28;27.80;96.70
25468;DHT22;13384;24.794;110.498;2022-09-09T09:42:19;27.80;96.80
25468;DHT22;13384;24.794;110.498;2022-09-09T09:44:55;27.80;96.70
25468;DHT22;13384;24.794;110.498;2022-09-09T09:47:43;27.80;96.70
25468;DHT22;13384;24.794;110.498;2022-09-09T09:50:19;27.80;96.70
25468;DHT22;13384;24.794;110.498;2022-09-09T09:53:02;27.80;97.00
25468;DHT22;13384;24.794;110.498;2022-09-09T09:55:52;27.80;96.70
25468;DHT22;13384;24.794;110.498;2022-09-09T09:58:53;27.80;96.70
25468;DHT22;13384;24.794;110.498;2022-09-09T10:02:23;27.80;96.70
25468;DHT22;13384;24.794;110.498;2022-09-09T10:05:16;27.80;96.90
25468;DHT22;13384;24.794;110.498;2022-09-09T10:13:46;27.80;96.50
25468;DHT22;13384;24.794;110.498;2022-09-09T10:22:32;27.80;96.60
25468;DHT22;13384;24.794;110.498;2022-09-09T10:25:34;27.80;96.50
25468;DHT22;13384;24.794;110.498;2022-09-09T10:28:46;27.80;96.60
25468;DHT22;13384;24.794;110.498;2022-09-09T10:55:50;27.80;96.40
25468;DHT22;13384;24.794;110.498;2022-09-09T10:59:13;27.80;96.40
25468;DHT22;13384;24.794;110.498;2022-09-09T11:02:15;27.80;96.30
25468;DHT22;13384;24.794;110.498;2022-09-09T11:05:08;27.80;96.40
25468;DHT22;13384;24.794;110.498;2022-09-09T11:07:55;27.80;96.40
25468;DHT22;13384;24.794;110.498;2022-09-09T11:17:06;27.80;96.30
25468;DHT22;13384;24.794;110.498;2022-09-09T11:19:42;27.80;96.30
25468;DHT22;13384;24.794;110.498;2022-09-09T11:28:05;27.80;96.30
25468;DHT22;13384;24.794;110.498;2022-09-09T11:31:17;27.80;96.30
25468;DHT22;13384;24.794;110.498;2022-09-09T11:34:12;27.80;96.40
25468;DHT22;13384;24.794;110.498;2022-09-09T11:44:44;27.80;96.40
25468;DHT22;13384;24.794;110.498;2022-09-09T11:47:24;27.80;96.30
25468;DHT22;13384;24.794;110.498;2022-09-09T11:50:28;27.80;96.20
25468;DHT22;13384;24.794;110.498;2022-09-09T11:53:18;27.70;96.30
25468;DHT22;13384;24.794;110.498;2022-09-09T11:56:08;27.80;96.30
25468;DHT22;13384;24.794;110.498;2022-09-09T11:59:02;27.80;96.20
25468;DHT22;13384;24.794;110.498;2022-09-09T12:04:11;27.80;96.30
25468;DHT22;13384;24.794;110.498;2022-09-09T12:09:51;27.80;96.30
25468;DHT22;13384;24.794;110.498;2022-09-09T12:12:26;27.80;96.30
25468;DHT22;13384;24.794;110.498;2022-09-09T12:15:21;27.80;96.40
25468;DHT22;13384;24.794;110.498;2022-09-09T12:17:54;27.80;96.30
25468;DHT22;13384;24.794;110.498;2022-09-09T12:24:08;27.80;96.40
25468;DHT22;13384;24.794;110.498;2022-09-09T12:27:07;27.80;96.30
25468;DHT22;13384;24.794;110.498;2022-09-09T12:30:01;27.80;96.30
25468;DHT22;13384;24.794;110.498;2022-09-09T12:33:16;27.70;96.20
25468;DHT22;13384;24.794;110.498;2022-09-09T12:35:54;27.80;96.30
25468;DHT22;13384;24.794;110.498;2022-09-09T12:38:39;27.70;96.20
25468;DHT22;13384;24.794;110.498;2022-09-09T12:41:27;27.70;96.30
25468;DHT22;13384;24.794;110.498;2022-09-09T12:44:06;27.70;96.30
25468;DHT22;13384;24.794;110.498;2022-09-09T12:46:46;27.70;96.20
25468;DHT22;13384;24.794;110.498;2022-09-09T12:51:58;27.70;96.30
25468;DHT22;13384;24.794;110.498;2022-09-09T12:54:30;27.70;96.30
25468;DHT22;13384;24.794;110.498;2022-09-09T12:57:00;27.80;96.20
25468;DHT22;13384;24.794;110.498;2022-09-09T12:59:40;27.80;96.30
25468;DHT22;13384;24.794;110.498;2022-09-09T13:02:25;27.70;96.30
25468;DHT22;13384;24.794;110.498;2022-09-09T13:05:26;27.70;96.20
25468;DHT22;13384;24.794;110.498;2022-09-09T13:08:06;27.70;96.20
25468;DHT22;13384;24.794;110.498;2022-09-09T13:11:00;27.70;96.20
25468;DHT22;13384;24.794;110.498;2022-09-09T13:13:40;27.80;96.30
25468;DHT22;13384;24.794;110.498;2022-09-09T13:16:40;27.70;96.20
25468;DHT22;13384;24.794;110.498;2022-09-09T13:19:20;27.80;96.30
25468;DHT22;13384;24.794;110.498;2022-09-09T13:21:51;27.70;96.20
25468;DHT22;13384;24.794;110.498;2022-09-09T13:24:43;27.70;96.30
25468;DHT22;13384;24.794;110.498;2022-09-09T13:28:03;27.70;96.20
25468;DHT22;13384;24.794;110.498;2022-09-09T13:30:38;27.70;96.20
25468;DHT22;13384;24.794;110.498;2022-09-09T13:36:11;27.70;96.20
25468;DHT22;13384;24.794;110.498;2022-09-09T13:38:53;27.70;96.30
25468;DHT22;13384;24.794;110.498;2022-09-09T13:41:33;27.70;96.20
25468;DHT22;13384;24.794;110.498;2022-09-09T13:44:21;27.70;96.20
25468;DHT22;13384;24.794;110.498;2022-09-09T13:47:19;27.70;96.20
25468;DHT22;13384;24.794;110.498;2022-09-09T13:49:50;27.70;96.20
25468;DHT22;13384;24.794;110.498;2022-09-09T13:52:24;27.70;96.20
25468;DHT22;13384;24.794;110.498;2022-09-09T13:55:10;27.70;96.20
25468;DHT22;13384;24.794;110.498;2022-09-09T13:57:54;27.70;96.20
25468;DHT22;13384;24.794;110.498;2022-09-09T14:00:26;27.70;96.20
25468;DHT22;13384;24.794;110.498;2022-09-09T14:02:59;27.70;96.20
25468;DHT22;13384;24.794;110.498;2022-09-09T14:05:36;27.70;96.20
25468;DHT22;13384;24.794;110.498;2022-09-09T14:08:25;27.70;95.80
25468;DHT22;13384;24.794;110.498;2022-09-09T14:10:56;27.70;96.20
25468;DHT22;13384;24.794;110.498;2022-09-09T14:13:28;27.70;96.20
25468;DHT22;13384;24.794;110.498;2022-09-09T14:15:59;27.70;96.20
25468;DHT22;13384;24.794;110.498;2022-09-09T14:18:30;27.70;96.20
25468;DHT22;13384;24.794;110.498;2022-09-09T14:21:01;27.70;96.20
25468;DHT22;13384;24.794;110.498;2022-09-09T14:23:33;27.70;96.20
25468;DHT22;13384;24.794;110.498;2022-09-09T14:26:15;27.70;96.50
25468;DHT22;13384;24.794;110.498;2022-09-09T14:29:07;27.70;96.20
25468;DHT22;13384;24.794;110.498;2022-09-09T14:31:39;27.70;96.20
25468;DHT22;13384;24.794;110.498;2022-09-09T14:34:11;27.70;96.20
25468;DHT22;13384;24.794;110.498;2022-09-09T14:37:03;27.70;96.20
25468;DHT22;13384;24.794;110.498;2022-09-09T14:39:36;27.70;96.20
25468;DHT22;13384;24.794;110.498;2022-09-09T14:42:07;27.70;96.20
25468;DHT22;13384;24.794;110.498;2022-09-09T14:44:41;27.70;97.00
25468;DHT22;13384;24.794;110.498;2022-09-09T14:47:13;27.70;96.60
25468;DHT22;13384;24.794;110.498;2022-09-09T14:49:44;27.60;96.10
25468;DHT22;13384;24.794;110.498;2022-09-09T14:52:35;27.60;96.00
25468;DHT22;13384;24.794;110.498;2022-09-09T14:55:07;27.60;96.60
25468;DHT22;13384;24.794;110.498;2022-09-09T14:57:40;27.60;96.60
25468;DHT22;13384;24.794;110.498;2022-09-09T15:00:11;27.60;96.30
25468;DHT22;13384;24.794;110.498;2022-09-09T15:02:46;27.70;96.40
25468;DHT22;13384;24.794;110.498;2022-09-09T15:05:20;27.60;96.40
25468;DHT22;13384;24.794;110.498;2022-09-09T15:07:53;27.60;96.20
25468;DHT22;13384;24.794;110.498;2022-09-09T15:10:44;27.70;96.30
25468;DHT22;13384;24.794;110.498;2022-09-09T15:13:17;27.70;96.90
25468;DHT22;13384;24.794;110.498;2022-09-09T15:15:49;27.60;97.00
25468;DHT22;13384;24.794;110.498;2022-09-09T15:18:21;27.60;97.60
25468;DHT22;13384;24.794;110.498;2022-09-09T15:20:53;27.60;96.50
25468;DHT22;13384;24.794;110.498;2022-09-09T15:23:32;27.60;97.90
25468;DHT22;13384;24.794;110.498;2022-09-09T15:26:26;27.60;96.50
25468;DHT22;13384;24.794;110.498;2022-09-09T15:28:58;27.60;96.90
25468;DHT22;13384;24.794;110.498;2022-09-09T15:31:52;27.60;96.60
25468;DHT22;13384;24.794;110.498;2022-09-09T15:34:28;27.60;97.50
25468;DHT22;13384;24.794;110.498;2022-09-09T15:37:03;27.60;97.40
25468;DHT22;13384;24.794;110.498;2022-09-09T15:40:28;27.60;96.90
25468;DHT22;13384;24.794;110.498;2022-09-09T15:43:02;27.60;96.80
25468;DHT22;13384;24.794;110.498;2022-09-09T15:45:59;27.60;97.70
25468;DHT22;13384;24.794;110.498;2022-09-09T15:48:36;27.60;96.60
25468;DHT22;13384;24.794;110.498;2022-09-09T15:51:09;27.60;96.30
25468;DHT22;13384;24.794;110.498;2022-09-09T15:53:58;27.60;98.70
25468;DHT22;13384;24.794;110.498;2022-09-09T15:56:30;27.60;96.30
25468;DHT22;13384;24.794;110.498;2022-09-09T15:59:04;27.60;96.30
25468;DHT22;13384;24.794;110.498;2022-09-09T16:01:57;27.60;96.70
25468;DHT22;13384;24.794;110.498;2022-09-09T16:04:33;27.60;97.50
25468;DHT22;13384;24.794;110.498;2022-09-09T16:07:25;27.60;96.90
25468;DHT22;13384;24.794;110.498;2022-09-09T16:10:17;27.60;97.30
25468;DHT22;13384;24.794;110.498;2022-09-09T16:12:48;27.60;98.40
25468;DHT22;13384;24.794;110.498;2022-09-09T16:15:40;27.60;96.80
25468;DHT22;13384;24.794;110.498;2022-09-09T16:21:07;27.60;96.70
25468;DHT22;13384;24.794;110.498;2022-09-09T16:23:44;27.60;98.10
25468;DHT22;13384;24.794;110.498;2022-09-09T16:26:39;27.60;98.40
25468;DHT22;13384;24.794;110.498;2022-09-09T16:29:18;27.60;97.60
25468;DHT22;13384;24.794;110.498;2022-09-09T16:31:53;27.60;97.10
25468;DHT22;13384;24.794;110.498;2022-09-09T16:34:51;27.60;98.60
25468;DHT22;13384;24.794;110.498;2022-09-09T16:37:24;27.50;96.70
25468;DHT22;13384;24.794;110.498;2022-09-09T16:40:19;27.60;98.00
25468;DHT22;13384;24.794;110.498;2022-09-09T16:42:52;27.50;96.70
25468;DHT22;13384;24.794;110.498;2022-09-09T16:45:30;27.60;97.40
25468;DHT22;13384;24.794;110.498;2022-09-09T16:48:22;27.60;96.50
25468;DHT22;13384;24.794;110.498;2022-09-09T16:50:53;27.60;96.30
25468;DHT22;13384;24.794;110.498;2022-09-09T16:53:24;27.60;97.40
25468;DHT22;13384;24.794;110.498;2022-09-09T16:55:57;27.60;96.40
25468;DHT22;13384;24.794;110.498;2022-09-09T16:58:29;27.60;95.60
25468;DHT22;13384;24.794;110.498;2022-09-09T17:01:05;27.60;96.30
25468;DHT22;13384;24.794;110.498;2022-09-09T17:04:00;27.60;96.20
25468;DHT22;13384;24.794;110.498;2022-09-09T17:06:53;27.60;97.30
25468;DHT22;13384;24.794;110.498;2022-09-09T17:09:26;27.60;95.80
25468;DHT22;13384;24.794;110.498;2022-09-09T17:11:59;27.60;97.30
25468;DHT22;13384;24.794;110.498;2022-09-09T17:14:35;27.60;96.20
25468;DHT22;13384;24.794;110.498;2022-09-09T17:17:09;27.60;97.50
25468;DHT22;13384;24.794;110.498;2022-09-09T17:19:59;27.60;98.80
25468;DHT22;13384;24.794;110.498;2022-09-09T17:22:30;27.50;97.80
25468;DHT22;13384;24.794;110.498;2022-09-09T17:25:05;27.50;99.20
25468;DHT22;13384;24.794;110.498;2022-09-09T17:27:42;27.50;99.00
25468;DHT22;13384;24.794;110.498;2022-09-09T17:30:14;27.50;97.80
25468;DHT22;13384;24.794;110.498;2022-09-09T17:32:47;27.40;97.50
25468;DHT22;13384;24.794;110.498;2022-09-09T17:35:59;27.40;97.10
25468;DHT22;13384;24.794;110.498;2022-09-09T17:39:06;27.50;97.00
25468;DHT22;13384;24.794;110.498;2022-09-09T17:41:38;27.50;96.30
25468;DHT22;13384;24.794;110.498;2022-09-09T17:44:10;27.60;97.10
25468;DHT22;13384;24.794;110.498;2022-09-09T17:46:45;27.60;97.40
25468;DHT22;13384;24.794;110.498;2022-09-09T17:49:34;27.50;97.60
25468;DHT22;13384;24.794;110.498;2022-09-09T17:52:06;27.50;97.40
25468;DHT22;13384;24.794;110.498;2022-09-09T17:54:37;27.50;98.50
25468;DHT22;13384;24.794;110.498;2022-09-09T17:57:12;27.50;99.20
25468;DHT22;13384;24.794;110.498;2022-09-09T18:00:08;27.50;97.60
25468;DHT22;13384;24.794;110.498;2022-09-09T18:03:14;27.50;97.80
25468;DHT22;13384;24.794;110.498;2022-09-09T18:05:46;27.40;98.40
25468;DHT22;13384;24.794;110.498;2022-09-09T18:08:19;27.50;98.90
25468;DHT22;13384;24.794;110.498;2022-09-09T18:10:53;27.40;98.00
25468;DHT22;13384;24.794;110.498;2022-09-09T18:13:27;27.40;96.80
25468;DHT22;13384;24.794;110.498;2022-09-09T18:15:59;27.40;96.60
25468;DHT22;13384;24.794;110.498;2022-09-09T18:18:33;27.50;96.00
25468;DHT22;13384;24.794;110.498;2022-09-09T18:21:07;27.60;97.90
25468;DHT22;13384;24.794;110.498;2022-09-09T18:24:03;27.50;96.60
25468;DHT22;13384;24.794;110.498;2022-09-09T18:26:56;27.50;98.30